Jackson Hole Airport
KJAC : rendu visible

Aérodrome :











RETROUVEZ-NOUS SUR...

 
LOGIN :

S'inscrire | Disclaimer

   EN    FR    IT 

 









Légende :    VFR   VFR Marginal   IFR   IFR Intensif   IFR Très Intensif
Visi : 
Plafond : 
>= 8 km
>= 3000ft
5 à 8 km
1000 à 3000 ft
1500m à 5 km
500 à 1000 ft
800 à 1500m
200 à 500 ft
< 800m
< 200 ft
Symboles :   Orages  Brouillard  Fortes neiges  Fortes précipitations  Vent > 20 kt






- Altitude de l'aérodrome : 6451 ft
- Code IATA : JAC


KJAC - Jackson Hole

DERNIER METAR :
  • 190256Z 02012KT 10SM CLR M22/M24 A3014 RMK AO2 SLP379 T12171239 53005

METARs EXPIRÉS :
  • 190156Z 02005KT 10SM CLR M18/M21 A3013 RMK AO2 SLP367 T11781206
  • 190056Z 03006KT 10SM CLR M14/M19 A3012 RMK AO2 SLP347 T11391189

TAF KJAC
Valide du 19 à 00h jusqu'au 20 à 00h UTC


182326Z 1900/1924 21005KT P6SM SCT060
FM190400 04006KT P6SM FEW150
FM191800 VRB03KT P6SM FEW250



MET'MAP, la Météo Aéronautique d'un coup d'oeil ! - Copyright ORBIFLY Décembre 2007 - Disclaimer

ORBIFLY MET'MAP TEAM :

Programmation & Développement : Alexandra Zaïnal
Sur une idée originale de : Baudouin d'Aumeries
Assistance à la programmation : Marc-Olivier Méhu
Soutien technique & logistique : Manuel Goepfert

Contact : metmap@orbifly.com




SOURCES & CREDITS :

   NOAA       Earth
Advisory